createdAt,value
2022-12-13T00:00:58.530Z,29.27
2022-12-13T00:03:25.641Z,29.00
2022-12-13T00:05:54.597Z,28.70
2022-12-13T00:08:21.431Z,29.00
2022-12-13T00:10:48.661Z,28.83
2022-12-13T00:13:15.793Z,28.07
2022-12-13T00:15:42.885Z,30.50
2022-12-13T00:18:10.050Z,29.03
2022-12-13T00:20:40.624Z,28.43
2022-12-13T00:23:07.728Z,27.87
2022-12-13T00:25:34.849Z,28.23
2022-12-13T00:28:02.022Z,26.03
2022-12-13T00:30:31.733Z,27.00
2022-12-13T00:32:59.226Z,24.50
2022-12-13T00:35:26.330Z,23.67
2022-12-13T00:37:53.068Z,24.70
2022-12-13T00:40:21.210Z,27.57
2022-12-13T00:42:49.064Z,26.90
2022-12-13T00:45:16.497Z,27.57
2022-12-13T00:47:43.826Z,26.80
2022-12-13T00:50:11.014Z,28.60
2022-12-13T00:52:38.221Z,26.93
2022-12-13T00:55:05.437Z,28.77
2022-12-13T00:57:33.673Z,25.83
2022-12-13T01:00:00.810Z,24.40
2022-12-13T01:02:27.697Z,25.37
2022-12-13T01:04:54.828Z,27.40
2022-12-13T01:07:21.911Z,27.10
2022-12-13T01:09:49.019Z,25.57
2022-12-13T01:12:15.821Z,26.00
2022-12-13T01:14:42.918Z,26.80
2022-12-13T01:17:10.150Z,26.90
2022-12-13T01:19:36.952Z,24.50
2022-12-13T01:22:06.986Z,25.43
2022-12-13T01:24:34.360Z,23.20
2022-12-13T01:27:01.488Z,24.90
2022-12-13T01:29:28.612Z,23.67
2022-12-13T01:31:55.855Z,24.40
2022-12-13T01:34:26.246Z,26.67
2022-12-13T01:36:58.509Z,25.37
2022-12-13T01:39:27.047Z,24.03
2022-12-13T01:42:00.055Z,23.70
2022-12-13T01:44:51.879Z,27.37
2022-12-13T01:47:23.900Z,25.80
2022-12-13T01:49:52.061Z,24.17
2022-12-13T01:52:18.871Z,24.70
2022-12-13T01:54:50.399Z,25.60
2022-12-13T01:57:19.255Z,25.37
2022-12-13T01:59:47.123Z,24.57
2022-12-13T02:02:15.351Z,26.30
2022-12-13T02:05:03.752Z,25.87
2022-12-13T02:07:32.925Z,24.00
2022-12-13T02:10:02.943Z,25.90
2022-12-13T02:12:32.649Z,22.70
2022-12-13T02:15:02.806Z,23.37
2022-12-13T02:17:35.497Z,24.30
2022-12-13T02:20:41.515Z,24.00
2022-12-13T02:23:37.374Z,24.50
2022-12-13T02:26:16.028Z,24.87
2022-12-13T02:28:43.093Z,24.53
2022-12-13T02:31:10.030Z,23.80
2022-12-13T02:33:37.215Z,22.73
2022-12-13T02:36:27.078Z,23.60
2022-12-13T02:39:02.331Z,23.40
2022-12-13T02:41:48.181Z,23.57
2022-12-13T02:44:22.310Z,21.87
2022-12-13T02:47:01.247Z,22.20
2022-12-13T02:49:32.315Z,22.33
2022-12-13T02:52:00.392Z,21.80
2022-12-13T02:54:27.573Z,21.60
2022-12-13T02:56:59.737Z,23.27
2022-12-13T02:59:39.171Z,21.83
2022-12-13T03:02:34.995Z,21.17
2022-12-13T03:05:20.707Z,21.33
2022-12-13T03:08:05.374Z,19.73
2022-12-13T03:10:50.061Z,20.03
2022-12-13T03:13:45.431Z,19.93
2022-12-13T03:16:12.584Z,20.00
2022-12-13T03:18:40.888Z,20.73
2022-12-13T03:21:09.572Z,19.50
2022-12-13T03:23:37.361Z,19.80
2022-12-13T03:26:23.907Z,21.30
2022-12-13T03:28:51.207Z,20.20
2022-12-13T03:31:18.518Z,20.10
2022-12-13T03:33:45.738Z,20.97
2022-12-13T03:36:13.296Z,21.50
2022-12-13T03:38:40.733Z,22.90
2022-12-13T03:41:11.219Z,20.00
2022-12-13T03:43:38.857Z,21.70
2022-12-13T03:46:06.470Z,20.27
2022-12-13T03:48:33.262Z,20.23
2022-12-13T03:51:00.437Z,19.90
2022-12-13T03:53:33.498Z,20.50
2022-12-13T03:56:02.502Z,19.07
2022-12-13T03:58:35.104Z,20.20
2022-12-13T04:01:08.820Z,19.93
2022-12-13T04:03:37.014Z,21.63
2022-12-13T04:06:04.365Z,20.67
2022-12-13T04:08:31.603Z,22.30
2022-12-13T04:10:58.847Z,20.10
2022-12-13T04:13:34.871Z,20.97
2022-12-13T04:16:02.831Z,20.73
2022-12-13T04:18:29.782Z,19.63
2022-12-13T04:20:57.598Z,20.57
2022-12-13T04:23:24.588Z,21.90
2022-12-13T04:25:51.663Z,20.33
2022-12-13T04:28:21.954Z,19.37
2022-12-13T04:30:52.777Z,18.83
2022-12-13T04:33:21.165Z,20.97
2022-12-13T04:35:48.672Z,19.87
2022-12-13T04:38:15.924Z,20.20
2022-12-13T04:40:42.646Z,20.73
2022-12-13T04:43:09.841Z,21.10
2022-12-13T04:45:36.974Z,20.13
2022-12-13T04:48:04.233Z,20.60
2022-12-13T04:50:31.335Z,20.80
2022-12-13T04:52:58.080Z,19.17
2022-12-13T04:55:25.197Z,19.80
2022-12-13T04:57:52.341Z,19.40
2022-12-13T05:00:21.167Z,20.40
2022-12-13T05:02:48.362Z,20.60
2022-12-13T05:05:15.437Z,21.20
2022-12-13T05:07:43.163Z,21.03
2022-12-13T05:10:11.591Z,20.57
2022-12-13T05:12:38.713Z,19.90
2022-12-13T05:15:06.272Z,21.60
2022-12-13T05:17:33.554Z,18.13
2022-12-13T05:20:00.773Z,21.33
2022-12-13T05:22:27.927Z,19.43
2022-12-13T05:24:54.670Z,21.00
2022-12-13T05:27:24.158Z,19.77
2022-12-13T05:30:02.806Z,20.03
2022-12-13T05:32:42.609Z,18.97
2022-12-13T05:35:22.181Z,19.83
2022-12-13T05:37:54.113Z,20.07
2022-12-13T05:40:23.208Z,19.77
2022-12-13T05:42:50.358Z,20.10
2022-12-13T05:45:20.620Z,17.43
2022-12-13T05:47:47.952Z,18.73
2022-12-13T05:50:17.611Z,19.00
2022-12-13T05:52:44.693Z,20.07
2022-12-13T05:55:12.272Z,19.50
2022-12-13T05:57:39.211Z,20.27
2022-12-13T06:00:29.888Z,19.20
2022-12-13T06:02:55.377Z,17.77
2022-12-13T06:05:22.440Z,19.77
2022-12-13T06:07:52.199Z,17.10
2022-12-13T06:10:23.745Z,20.47
2022-12-13T06:12:50.567Z,18.73
2022-12-13T06:15:22.281Z,18.70
2022-12-13T06:17:50.366Z,19.10
2022-12-13T06:20:23.431Z,20.67
2022-12-13T06:22:51.738Z,19.00
2022-12-13T06:25:30.037Z,22.63
2022-12-13T06:27:58.952Z,21.67
2022-12-13T06:30:28.346Z,22.53
2022-12-13T06:32:55.488Z,23.53
2022-12-13T06:35:29.518Z,22.47
2022-12-13T06:38:01.301Z,19.97
2022-12-13T06:40:30.466Z,18.90
2022-12-13T06:42:57.413Z,20.37
2022-12-13T06:45:24.543Z,21.03
2022-12-13T06:47:51.648Z,21.67
2022-12-13T06:50:18.799Z,21.03
2022-12-13T06:52:48.240Z,19.80
2022-12-13T06:55:15.493Z,21.33
2022-12-13T06:57:51.677Z,23.37
2022-12-13T07:00:21.660Z,23.97
2022-12-13T07:02:54.029Z,21.10
2022-12-13T07:05:21.749Z,20.10
2022-12-13T07:07:48.999Z,23.17
2022-12-13T07:10:21.798Z,20.50
2022-12-13T07:12:49.931Z,22.47
2022-12-13T07:15:16.827Z,25.10
2022-12-13T07:17:43.999Z,24.90
2022-12-13T07:20:13.487Z,21.60
2022-12-13T07:22:47.181Z,23.20
2022-12-13T07:25:28.346Z,23.03
2022-12-13T07:28:07.584Z,19.63
2022-12-13T07:30:41.286Z,20.57
2022-12-13T07:33:09.563Z,20.97
2022-12-13T07:35:37.177Z,19.50
2022-12-13T07:38:05.493Z,20.90
2022-12-13T07:40:34.893Z,21.17
2022-12-13T07:43:02.029Z,20.27
2022-12-13T07:45:29.076Z,20.90
2022-12-13T07:47:56.200Z,23.67
2022-12-13T07:50:25.177Z,22.60
2022-12-13T07:52:52.783Z,21.20
2022-12-13T07:55:23.089Z,21.40
2022-12-13T07:58:18.210Z,21.97
2022-12-13T08:00:46.791Z,20.57
2022-12-13T08:03:25.166Z,18.97
2022-12-13T08:06:04.156Z,19.80
2022-12-13T08:08:31.907Z,22.87
2022-12-13T08:11:03.792Z,20.20
2022-12-13T08:13:30.668Z,20.23
2022-12-13T08:16:05.237Z,22.70
2022-12-13T08:21:52.724Z,21.33
2022-12-13T08:26:52.531Z,22.90
2022-12-13T08:29:23.486Z,22.60
2022-12-13T08:32:01.330Z,22.53
2022-12-13T08:34:28.802Z,21.87
2022-12-13T08:37:01.457Z,20.60
2022-12-13T08:39:30.155Z,20.03
2022-12-13T08:41:57.262Z,19.83
2022-12-13T08:44:24.449Z,20.03
2022-12-13T08:46:51.193Z,19.13
2022-12-13T08:49:18.463Z,20.77
2022-12-13T08:51:45.585Z,22.03
2022-12-13T08:54:12.705Z,20.83
2022-12-13T08:56:39.852Z,22.90
2022-12-13T08:59:10.871Z,21.33
2022-12-13T09:01:37.624Z,21.20
2022-12-13T09:04:04.823Z,22.20
2022-12-13T09:06:31.991Z,19.60
2022-12-13T09:08:59.247Z,19.90
2022-12-13T09:11:33.146Z,20.90
2022-12-13T09:14:03.453Z,21.50
2022-12-13T09:16:35.801Z,20.57
2022-12-13T09:19:24.632Z,22.47
2022-12-13T09:21:52.476Z,19.90
2022-12-13T09:24:29.512Z,21.53
2022-12-13T09:27:09.306Z,21.80
2022-12-13T09:32:15.815Z,22.17
2022-12-13T09:34:42.619Z,24.23
2022-12-13T09:37:13.592Z,22.63
2022-12-13T09:39:54.978Z,23.27
2022-12-13T09:42:30.449Z,23.63
2022-12-13T09:45:05.399Z,24.63
2022-12-13T09:47:36.997Z,23.80
2022-12-13T09:50:14.852Z,23.00
2022-12-13T09:52:44.330Z,23.77
2022-12-13T09:55:30.621Z,24.93
2022-12-13T09:58:01.455Z,23.73
2022-12-13T10:00:35.147Z,23.90
2022-12-13T10:03:02.540Z,24.60
2022-12-13T10:05:29.394Z,23.30
2022-12-13T10:08:19.643Z,24.07
2022-12-13T10:10:46.840Z,26.80
2022-12-13T10:13:25.774Z,25.07
2022-12-13T10:16:05.249Z,25.80
2022-12-13T10:18:38.641Z,25.40
2022-12-13T10:21:20.660Z,25.47
2022-12-13T10:26:38.791Z,27.27
2022-12-13T10:29:07.344Z,26.53
2022-12-13T10:31:47.985Z,25.53
2022-12-13T10:34:25.075Z,25.57
2022-12-13T10:37:00.118Z,25.93
2022-12-13T10:39:43.497Z,25.30
2022-12-13T10:42:22.805Z,25.50
2022-12-13T10:45:10.754Z,24.27
2022-12-13T10:47:37.883Z,23.80
2022-12-13T10:50:05.449Z,26.40
2022-12-13T10:52:43.149Z,24.63
2022-12-13T10:55:43.279Z,25.47
2022-12-13T10:58:19.556Z,24.90
2022-12-13T11:00:47.650Z,24.37
2022-12-13T11:03:30.940Z,24.60
2022-12-13T11:06:03.990Z,25.47
2022-12-13T11:08:30.854Z,24.37
2022-12-13T11:11:03.625Z,25.40
2022-12-13T11:13:42.654Z,24.80
2022-12-13T11:16:32.201Z,25.50
2022-12-13T11:19:16.343Z,27.67
2022-12-13T11:21:48.358Z,25.57
2022-12-13T11:24:35.862Z,25.77
2022-12-13T11:27:34.049Z,26.57
2022-12-13T11:30:19.018Z,25.67
2022-12-13T11:32:59.390Z,26.37
2022-12-13T11:35:31.952Z,25.67
2022-12-13T11:38:24.155Z,26.20
2022-12-13T11:40:59.185Z,25.47
2022-12-13T11:43:34.679Z,25.37
2022-12-13T11:46:19.111Z,25.70
2022-12-13T11:49:36.142Z,25.83
2022-12-13T11:52:24.368Z,25.30
2022-12-13T11:55:00.321Z,24.57
2022-12-13T11:58:05.980Z,24.23
2022-12-13T12:00:37.178Z,23.40
2022-12-13T12:03:19.990Z,25.47
2022-12-13T12:06:12.863Z,24.67
2022-12-13T12:08:48.233Z,23.67
2022-12-13T12:11:15.163Z,24.63
2022-12-13T12:13:51.560Z,26.43
2022-12-13T12:16:28.900Z,26.10
2022-12-13T12:18:55.787Z,25.90
2022-12-13T12:24:56.497Z,23.97
2022-12-13T12:28:02.517Z,26.30
2022-12-13T12:30:32.251Z,24.03
2022-12-13T12:33:24.746Z,24.73
2022-12-13T12:36:10.969Z,23.03
2022-12-13T12:39:17.458Z,21.93
2022-12-13T12:43:14.179Z,22.37
2022-12-13T12:46:01.621Z,22.00
2022-12-13T12:49:01.053Z,22.67
2022-12-13T12:51:52.226Z,23.00
2022-12-13T12:54:23.437Z,23.90
2022-12-13T12:57:09.493Z,23.00
2022-12-13T12:59:43.630Z,22.40
2022-12-13T13:02:21.610Z,23.50
2022-12-13T13:05:08.486Z,24.20
2022-12-13T13:07:43.627Z,24.63
2022-12-13T13:10:26.461Z,23.77
2022-12-13T13:13:01.819Z,22.90
2022-12-13T13:15:52.617Z,22.80
2022-12-13T13:18:52.438Z,23.97
2022-12-13T13:21:31.121Z,22.20
2022-12-13T13:24:13.702Z,23.23
2022-12-13T13:26:42.612Z,23.17
2022-12-13T13:29:27.919Z,24.00
2022-12-13T13:32:05.204Z,24.03
2022-12-13T13:34:43.613Z,24.07
2022-12-13T13:37:25.306Z,22.33
2022-12-13T13:40:31.061Z,22.37
2022-12-13T13:43:10.276Z,26.40
2022-12-13T13:45:53.902Z,23.93
2022-12-13T13:49:03.038Z,23.60
2022-12-13T13:52:16.705Z,23.13
2022-12-13T13:55:12.564Z,22.80
2022-12-13T13:58:21.635Z,23.77
2022-12-13T14:01:06.927Z,23.77
2022-12-13T14:03:34.990Z,24.90
2022-12-13T14:06:38.642Z,28.77
2022-12-13T14:09:05.753Z,22.30
2022-12-13T14:11:44.300Z,23.57
2022-12-13T14:14:50.063Z,23.30
2022-12-13T14:17:22.928Z,23.90
2022-12-13T14:19:58.940Z,28.57
2022-12-13T14:22:50.998Z,28.30
2022-12-13T14:25:20.464Z,28.63
2022-12-13T14:27:55.616Z,30.50
2022-12-13T14:30:28.483Z,24.60
2022-12-13T14:32:56.910Z,23.13
2022-12-13T14:35:30.460Z,25.27
2022-12-13T14:38:01.430Z,27.97
2022-12-13T14:40:29.733Z,26.13
2022-12-13T14:42:56.980Z,26.57
2022-12-13T14:45:25.174Z,26.90
2022-12-13T14:47:56.435Z,24.57
2022-12-13T14:50:25.755Z,26.60
2022-12-13T14:52:53.281Z,24.03
2022-12-13T14:55:27.788Z,25.03
2022-12-13T14:57:57.153Z,25.80
2022-12-13T15:00:32.321Z,26.30
2022-12-13T15:03:01.471Z,28.60
2022-12-13T15:05:50.572Z,26.10
2022-12-13T15:08:19.509Z,24.87
2022-12-13T15:10:49.530Z,27.60
2022-12-13T15:13:25.400Z,29.10
2022-12-13T15:16:10.271Z,28.97
2022-12-13T15:18:38.356Z,28.53
2022-12-13T15:21:24.951Z,27.83
2022-12-13T15:23:53.709Z,28.37
2022-12-13T15:26:28.947Z,28.57
2022-12-13T15:28:59.950Z,29.03
2022-12-13T15:31:28.208Z,31.07
2022-12-13T15:34:01.125Z,29.37
2022-12-13T15:36:29.555Z,28.53
2022-12-13T15:38:56.194Z,27.60
2022-12-13T15:41:28.530Z,26.73
2022-12-13T15:43:59.904Z,24.50
2022-12-13T15:46:32.030Z,26.80
2022-12-13T15:49:02.344Z,25.30
2022-12-13T15:51:30.581Z,23.47
2022-12-13T15:54:00.446Z,24.03
2022-12-13T15:56:35.421Z,24.93
2022-12-13T15:59:04.325Z,25.80
2022-12-13T16:01:35.314Z,26.13
2022-12-13T16:04:04.631Z,25.27
2022-12-13T16:06:33.063Z,23.10
2022-12-13T16:09:05.173Z,24.13
2022-12-13T16:11:35.846Z,27.30
2022-12-13T16:14:30.720Z,26.53
2022-12-13T16:17:10.631Z,26.27
2022-12-13T16:19:37.873Z,26.30
2022-12-13T16:22:09.169Z,25.20
2022-12-13T16:24:36.505Z,27.70
2022-12-13T16:27:08.318Z,31.70
2022-12-13T16:29:35.980Z,25.30
2022-12-13T16:32:08.427Z,25.80
2022-12-13T16:34:39.299Z,24.27
2022-12-13T16:37:09.043Z,22.63
2022-12-13T16:39:54.026Z,21.87
2022-12-13T16:42:21.268Z,24.50
2022-12-13T16:45:11.334Z,22.23
2022-12-13T16:47:48.141Z,23.03
2022-12-13T16:50:18.239Z,22.03
2022-12-13T16:52:45.416Z,20.67
2022-12-13T16:55:12.537Z,22.23
2022-12-13T16:57:39.809Z,22.47
2022-12-13T17:00:10.465Z,27.87
2022-12-13T17:02:37.669Z,36.47
2022-12-13T17:05:05.555Z,28.87
2022-12-13T17:07:33.237Z,21.37
2022-12-13T17:10:00.275Z,20.50
2022-12-13T17:12:27.448Z,19.00
2022-12-13T17:14:54.457Z,20.00
2022-12-13T17:17:21.658Z,21.90
2022-12-13T17:19:48.602Z,20.30
2022-12-13T17:22:16.025Z,21.40
2022-12-13T17:24:43.215Z,22.10
2022-12-13T17:27:10.374Z,18.07
2022-12-13T17:29:37.390Z,20.57
2022-12-13T17:32:05.144Z,19.20
2022-12-13T17:34:32.300Z,19.07
2022-12-13T17:36:59.066Z,18.80
2022-12-13T17:39:26.249Z,17.83
2022-12-13T17:41:54.909Z,18.83
2022-12-13T17:44:23.330Z,20.77
2022-12-13T17:46:54.687Z,18.37
2022-12-13T17:49:22.283Z,17.50
2022-12-13T17:51:51.532Z,16.60
2022-12-13T17:54:19.319Z,15.90
2022-12-13T17:56:46.496Z,15.27
2022-12-13T17:59:15.187Z,16.77
2022-12-13T18:01:45.222Z,14.90
2022-12-13T18:04:12.687Z,15.57
2022-12-13T18:06:40.313Z,15.00
2022-12-13T18:09:08.222Z,16.33
2022-12-13T18:11:35.798Z,16.93
2022-12-13T18:14:04.720Z,16.63
2022-12-13T18:16:36.871Z,20.30
2022-12-13T18:19:10.823Z,27.23
2022-12-13T18:21:37.972Z,18.97
2022-12-13T18:24:06.449Z,17.87
2022-12-13T18:26:33.668Z,18.20
2022-12-13T18:29:00.788Z,16.60
2022-12-13T18:31:28.228Z,18.27
2022-12-13T18:33:55.535Z,18.23
2022-12-13T18:36:24.307Z,16.00
2022-12-13T18:38:51.484Z,16.80
2022-12-13T18:41:21.532Z,16.87
2022-12-13T18:43:48.779Z,17.60
2022-12-13T18:46:16.015Z,15.50
2022-12-13T18:48:43.316Z,15.00
2022-12-13T18:51:10.504Z,17.30
2022-12-13T18:53:38.269Z,14.90
2022-12-13T18:56:11.665Z,15.60
2022-12-13T18:58:43.157Z,19.67
2022-12-13T19:01:12.617Z,16.37
2022-12-13T19:03:40.008Z,15.83
2022-12-13T19:06:07.473Z,15.33
2022-12-13T19:08:36.497Z,14.90
2022-12-13T19:11:04.245Z,16.30
2022-12-13T19:13:32.554Z,16.10
2022-12-13T19:16:06.779Z,18.63
2022-12-13T19:18:34.412Z,15.77
2022-12-13T19:21:01.788Z,16.27
2022-12-13T19:23:29.510Z,13.97
2022-12-13T19:25:56.913Z,13.77
2022-12-13T19:28:23.715Z,13.10
2022-12-13T19:30:50.882Z,12.67
2022-12-13T19:33:18.539Z,15.60
2022-12-13T19:35:46.702Z,13.30
2022-12-13T19:38:14.295Z,16.20
2022-12-13T19:40:44.118Z,14.00
2022-12-13T19:43:11.683Z,14.50
2022-12-13T19:45:38.825Z,14.77
2022-12-13T19:48:06.008Z,16.67
2022-12-13T19:50:33.242Z,15.90
2022-12-13T19:53:00.427Z,17.13
2022-12-13T19:55:28.108Z,16.13
2022-12-13T19:57:55.285Z,17.53
2022-12-13T20:00:22.580Z,17.10
2022-12-13T20:02:50.448Z,19.30
2022-12-13T20:05:17.908Z,15.70
2022-12-13T20:07:45.106Z,18.63
2022-12-13T20:10:12.499Z,19.20
2022-12-13T20:12:41.111Z,22.30
2022-12-13T20:15:09.286Z,23.23
2022-12-13T20:17:36.585Z,23.80
2022-12-13T20:20:04.728Z,24.00
2022-12-13T20:22:32.720Z,24.07
2022-12-13T20:24:59.819Z,25.53
2022-12-13T20:27:27.197Z,27.10
2022-12-13T20:29:54.391Z,22.60
2022-12-13T20:32:21.625Z,23.53
2022-12-13T20:34:53.204Z,23.60
2022-12-13T20:37:22.133Z,23.13
2022-12-13T20:39:49.446Z,26.20
2022-12-13T20:42:16.517Z,36.97
2022-12-13T20:44:43.675Z,33.67
2022-12-13T20:47:10.908Z,36.30
2022-12-13T20:49:38.148Z,38.00
2022-12-13T20:52:05.159Z,34.40
2022-12-13T20:54:32.342Z,28.70
2022-12-13T20:56:59.630Z,30.97
2022-12-13T20:59:26.758Z,35.03
2022-12-13T21:01:53.947Z,32.40
2022-12-13T21:04:21.123Z,41.27
2022-12-13T21:06:48.251Z,36.17
2022-12-13T21:09:15.380Z,51.10
2022-12-13T21:11:44.953Z,48.13
2022-12-13T21:14:23.007Z,40.70
2022-12-13T21:16:55.723Z,39.63
2022-12-13T21:19:27.819Z,32.53
2022-12-13T21:21:55.867Z,34.67
2022-12-13T21:24:24.695Z,32.73
2022-12-13T21:26:51.884Z,33.93
2022-12-13T21:29:19.054Z,33.83
2022-12-13T21:31:49.684Z,35.80
2022-12-13T21:34:17.577Z,32.30
2022-12-13T21:36:47.216Z,33.20
2022-12-13T21:39:22.851Z,32.80
2022-12-13T21:41:50.219Z,32.50
2022-12-13T21:44:18.434Z,31.50
2022-12-13T21:49:32.527Z,29.90
2022-12-13T21:51:59.670Z,27.43
2022-12-13T21:54:26.789Z,28.00
2022-12-13T21:57:12.931Z,29.00
2022-12-13T21:59:40.006Z,28.73
2022-12-13T22:02:12.381Z,28.93
2022-12-13T22:04:41.985Z,27.13
2022-12-13T22:07:09.349Z,29.50
2022-12-13T22:09:36.996Z,30.30
2022-12-13T22:12:09.688Z,27.90
2022-12-13T22:14:37.017Z,26.73
2022-12-13T22:17:03.915Z,26.53
2022-12-13T22:19:30.694Z,28.57
2022-12-13T22:21:57.852Z,26.60
2022-12-13T22:24:25.018Z,25.07
2022-12-13T22:26:52.122Z,25.87
2022-12-13T22:29:19.387Z,24.47
2022-12-13T22:31:49.120Z,25.03
2022-12-13T22:34:16.347Z,26.00
2022-12-13T22:36:43.460Z,24.77
2022-12-13T22:39:21.565Z,23.77
2022-12-13T22:41:50.248Z,23.20
2022-12-13T22:44:18.970Z,26.20
2022-12-13T22:46:45.696Z,26.70
2022-12-13T22:49:12.686Z,26.30
2022-12-13T22:51:40.241Z,26.30
2022-12-13T22:54:07.761Z,25.60
2022-12-13T22:56:35.036Z,23.40
2022-12-13T22:59:03.888Z,24.60
2022-12-13T23:01:40.448Z,21.03
2022-12-13T23:04:07.865Z,22.20
2022-12-13T23:06:39.353Z,23.27
2022-12-13T23:09:09.010Z,21.57
2022-12-13T23:11:54.861Z,21.37
2022-12-13T23:14:27.241Z,21.53
2022-12-13T23:16:54.429Z,20.60
2022-12-13T23:22:08.711Z,20.60
2022-12-13T23:24:35.746Z,18.67
2022-12-13T23:27:02.940Z,20.83
2022-12-13T23:29:30.062Z,21.67
2022-12-13T23:31:57.200Z,21.30
2022-12-13T23:34:24.358Z,21.30
2022-12-13T23:36:51.459Z,20.37
2022-12-13T23:39:18.430Z,19.13
2022-12-13T23:41:45.566Z,20.67
2022-12-13T23:44:12.691Z,21.57
2022-12-13T23:46:39.798Z,19.37
2022-12-13T23:49:06.907Z,19.40
2022-12-13T23:51:34.708Z,18.20
2022-12-13T23:54:01.630Z,18.80
2022-12-13T23:56:29.720Z,21.77
2022-12-13T23:58:56.789Z,20.53
